Terminal Aerodrome Forecast
Issued by NWS

Home | Current Version | Previous Version | Text Only | Print | Product List | Glossary On
Versions: 1 2 3 4 5 6 7 8 9 10 11 12 13 14 15 16 17
000
FTUS43 KILX 241100
TAFBMI
TAF
KBMI 241136Z 2412/2512 13015KT P6SM SCT100 BKN250
     FM241500 14019G30KT P6SM SCT080 OVC250
     FM242000 15018G28KT P6SM SCT060 BKN150
     FM250000 15016G26KT 4SM -RA VCTS OVC035CB
     FM250300 13013G23KT 6SM -RA BR SCT006 OVC012
     FM250700 34014KT P6SM VCSH SCT004 OVC010=

USA.gov is the U.S. government's official web portal to all federal, state and local government web resources and services.